createdAt,value
2022-09-23T00:01:08.883Z,100353.06
2022-09-23T00:03:39.327Z,100343.31
2022-09-23T00:06:11.037Z,100348.50
2022-09-23T00:08:42.200Z,100336.06
2022-09-23T00:11:12.347Z,100340.09
2022-09-23T00:13:42.795Z,100340.41
2022-09-23T00:16:13.137Z,100347.16
2022-09-23T00:18:43.488Z,100344.94
2022-09-23T00:21:15.579Z,100335.56
2022-09-23T00:23:44.423Z,100333.44
2022-09-23T00:26:15.782Z,100333.09
2022-09-23T00:28:44.019Z,100331.47
2022-09-23T00:31:14.492Z,100321.78
2022-09-23T00:33:42.726Z,100320.97
2022-09-23T00:36:15.644Z,100324.84
2022-09-23T00:38:43.749Z,100331.63
2022-09-23T00:41:18.445Z,100323.22
2022-09-23T00:43:48.426Z,100320.97
2022-09-23T00:46:19.897Z,100327.78
2022-09-23T00:48:51.122Z,100327.94
2022-09-23T00:51:23.670Z,100319.03
2022-09-23T00:53:53.278Z,100316.63
2022-09-23T00:56:24.518Z,100309.50
2022-09-23T00:58:53.527Z,100316.28
2022-09-23T01:01:22.198Z,100312.00
2022-09-23T01:03:51.174Z,100309.47
2022-09-23T01:06:20.459Z,100306.41
2022-09-23T01:08:49.051Z,100296.88
2022-09-23T01:11:40.787Z,100303.34
2022-09-23T01:14:24.131Z,100301.25
2022-09-23T01:16:58.448Z,100296.53
2022-09-23T01:19:47.613Z,100298.34
2022-09-23T01:22:22.979Z,100295.41
2022-09-23T01:25:11.235Z,100296.88
2022-09-23T01:27:58.919Z,100291.03
2022-09-23T01:30:46.819Z,100273.69
2022-09-23T01:33:23.188Z,100288.44
2022-09-23T01:36:03.373Z,100287.31
2022-09-23T01:38:40.123Z,100286.34
2022-09-23T01:41:16.466Z,100284.56
2022-09-23T01:43:51.288Z,100286.69
2022-09-23T01:46:25.498Z,100277.59
2022-09-23T01:49:01.846Z,100276.97
2022-09-23T01:51:34.826Z,100278.56
2022-09-23T01:54:09.500Z,100279.06
2022-09-23T01:56:41.879Z,100276.94
2022-09-23T01:59:14.129Z,100277.94
2022-09-23T02:01:50.893Z,100272.91
2022-09-23T02:04:24.882Z,100272.91
2022-09-23T02:06:58.030Z,100270.16
2022-09-23T02:09:32.667Z,100268.53
2022-09-23T02:12:06.734Z,100264.31
2022-09-23T02:14:39.933Z,100270.31
2022-09-23T02:17:13.089Z,100264.00
2022-09-23T02:19:47.919Z,100249.41
2022-09-23T02:22:20.840Z,100263.84
2022-09-23T02:24:50.010Z,100262.22
2022-09-23T02:27:25.820Z,100254.44
2022-09-23T02:29:58.693Z,100242.78
2022-09-23T02:32:34.451Z,100253.31
2022-09-23T02:35:13.803Z,100248.78
2022-09-23T02:37:48.662Z,100246.03
2022-09-23T02:40:23.877Z,100251.84
2022-09-23T02:42:59.769Z,100254.44
2022-09-23T02:45:27.938Z,100241.81
2022-09-23T02:48:03.743Z,100248.63
2022-09-23T02:50:33.384Z,100241.00
2022-09-23T02:53:02.142Z,100236.31
2022-09-23T02:55:32.398Z,100242.47
2022-09-23T02:58:02.606Z,100237.28
2022-09-23T03:00:40.303Z,100235.00
2022-09-23T03:03:24.167Z,100232.91
2022-09-23T03:05:57.432Z,100231.28
2022-09-23T03:08:37.636Z,100223.69
2022-09-23T03:11:08.524Z,100224.97
2022-09-23T03:13:53.218Z,100225.44
2022-09-23T03:16:31.845Z,100221.41
2022-09-23T03:19:13.379Z,100206.34
2022-09-23T03:21:46.461Z,100214.28
2022-09-23T03:24:16.660Z,100207.81
2022-09-23T03:26:47.765Z,100209.41
2022-09-23T03:29:17.927Z,100189.66
2022-09-23T03:31:46.497Z,100197.59
2022-09-23T03:34:21.336Z,100197.28
2022-09-23T03:36:57.429Z,100195.97
2022-09-23T03:39:32.562Z,100199.38
2022-09-23T03:42:04.851Z,100201.00
2022-09-23T03:44:37.818Z,100193.38
2022-09-23T03:47:06.894Z,100184.97
2022-09-23T03:49:39.214Z,100181.56
2022-09-23T03:52:07.285Z,100191.59
2022-09-23T03:54:35.943Z,100184.50
2022-09-23T03:57:04.457Z,100186.44
2022-09-23T03:59:32.682Z,100186.44
2022-09-23T04:02:01.886Z,100186.44
2022-09-23T04:04:33.947Z,100176.88
2022-09-23T04:07:04.651Z,100176.56
2022-09-23T04:09:32.626Z,100175.91
2022-09-23T04:12:03.209Z,100189.34
2022-09-23T04:14:31.207Z,100178.66
2022-09-23T04:16:59.228Z,100171.84
2022-09-23T04:19:27.171Z,100172.66
2022-09-23T04:21:55.218Z,100165.22
2022-09-23T04:24:24.647Z,100166.34
2022-09-23T04:26:53.876Z,100171.53
2022-09-23T04:29:22.398Z,100163.59
2022-09-23T04:31:50.644Z,100161.66
2022-09-23T04:34:19.393Z,100158.59
2022-09-23T04:36:48.653Z,100162.13
2022-09-23T04:39:17.527Z,100156.47
2022-09-23T04:41:47.263Z,100164.72
2022-09-23T04:44:15.977Z,100167.16
2022-09-23T04:46:47.570Z,100157.13
2022-09-23T04:49:15.931Z,100160.34
2022-09-23T04:51:44.179Z,100144.97
2022-09-23T04:54:14.546Z,100160.53
2022-09-23T04:56:43.239Z,100153.56
2022-09-23T04:59:12.660Z,100158.59
2022-09-23T05:01:41.712Z,100153.06
2022-09-23T05:04:14.351Z,100157.44
2022-09-23T05:06:45.076Z,100155.81
2022-09-23T05:09:16.107Z,100156.47
2022-09-23T05:11:45.522Z,100148.84
2022-09-23T05:14:15.344Z,100154.19
2022-09-23T05:16:43.777Z,100138.19
2022-09-23T05:19:13.518Z,100143.84
2022-09-23T05:21:41.683Z,100153.38
2022-09-23T05:24:09.916Z,100148.34
2022-09-23T05:26:38.381Z,100142.06
2022-09-23T05:29:06.550Z,100144.00
2022-09-23T05:31:36.720Z,100145.94
2022-09-23T05:34:06.607Z,100147.22
2022-09-23T05:36:38.645Z,100142.38
2022-09-23T05:39:08.833Z,100148.53
2022-09-23T05:41:38.262Z,100148.22
2022-09-23T05:44:06.356Z,100147.72
2022-09-23T05:46:36.139Z,100142.22
2022-09-23T05:49:05.626Z,100143.19
2022-09-23T05:51:35.457Z,100139.78
2022-09-23T05:54:04.143Z,100128.44
2022-09-23T05:56:33.879Z,100133.63
2022-09-23T05:59:03.292Z,100141.38
2022-09-23T06:01:33.969Z,100138.34
2022-09-23T06:04:05.892Z,100137.03
2022-09-23T06:06:35.964Z,100140.28
2022-09-23T06:09:05.271Z,100137.19
2022-09-23T06:11:34.875Z,100143.53
2022-09-23T06:14:03.288Z,100148.53
2022-09-23T06:16:33.711Z,100133.50
2022-09-23T06:19:06.558Z,100141.75
2022-09-23T06:21:37.617Z,100134.94
2022-09-23T06:24:06.605Z,100144.50
2022-09-23T06:26:35.665Z,100148.34
2022-09-23T06:29:06.147Z,100144.97
2022-09-23T06:31:34.387Z,100140.94
2022-09-23T06:34:16.412Z,100081.00
2022-09-23T06:36:46.421Z,100143.53
2022-09-23T06:39:15.650Z,100142.72
2022-09-23T06:41:44.143Z,100133.97
2022-09-23T06:44:15.672Z,100145.94
2022-09-23T06:46:44.331Z,100144.97
2022-09-23T06:49:14.014Z,100129.59
2022-09-23T06:51:42.690Z,100154.38
2022-09-23T06:54:11.221Z,100144.16
2022-09-23T06:56:40.062Z,100136.41
2022-09-23T06:59:10.399Z,100145.63
2022-09-23T07:01:38.470Z,100143.84
2022-09-23T07:04:07.658Z,100145.59
2022-09-23T07:06:37.634Z,100147.41
2022-09-23T07:09:06.974Z,100149.66
2022-09-23T07:11:34.926Z,100139.31
2022-09-23T07:14:03.180Z,100146.59
2022-09-23T07:16:31.683Z,100135.91
2022-09-23T07:18:59.815Z,100142.38
2022-09-23T07:21:27.974Z,100141.56
2022-09-23T07:23:58.229Z,100131.34
2022-09-23T07:26:27.131Z,100136.69
2022-09-23T07:28:56.574Z,100128.25
2022-09-23T07:31:37.306Z,100131.66
2022-09-23T07:34:07.621Z,100128.59
2022-09-23T07:36:37.505Z,100135.88
2022-09-23T07:39:11.221Z,100131.38
2022-09-23T07:41:39.359Z,100135.09
2022-09-23T07:44:08.217Z,100136.72
2022-09-23T07:46:37.303Z,100120.19
2022-09-23T07:49:06.645Z,100127.94
2022-09-23T07:51:37.381Z,100123.59
2022-09-23T07:54:08.959Z,100131.16
2022-09-23T07:56:38.221Z,100136.00
2022-09-23T07:59:08.606Z,100138.78
2022-09-23T08:01:38.763Z,100134.34
2022-09-23T08:04:09.274Z,100138.41
2022-09-23T08:06:40.935Z,100130.22
2022-09-23T08:09:10.730Z,100137.50
2022-09-23T08:11:39.448Z,100124.72
2022-09-23T08:14:08.904Z,100129.25
2022-09-23T08:16:37.167Z,100118.72
2022-09-23T08:21:33.604Z,100127.59
2022-09-23T08:24:01.714Z,100134.69
2022-09-23T08:26:34.264Z,100126.75
2022-09-23T08:29:02.319Z,100125.31
2022-09-23T08:31:30.247Z,100123.66
2022-09-23T08:33:59.384Z,100108.16
2022-09-23T08:36:27.866Z,100129.13
2022-09-23T08:38:57.249Z,100125.84
2022-09-23T08:41:34.671Z,100124.38
2022-09-23T08:46:54.818Z,100125.03
2022-09-23T08:49:30.995Z,100126.78
2022-09-23T08:52:06.817Z,100133.81
2022-09-23T08:54:34.821Z,100131.47
2022-09-23T08:57:04.799Z,100127.34
2022-09-23T08:59:43.043Z,100119.56
2022-09-23T09:02:17.861Z,100126.53
2022-09-23T09:04:50.486Z,100121.19
2022-09-23T09:07:36.321Z,100132.84
2022-09-23T09:10:10.867Z,100131.22
2022-09-23T09:12:44.490Z,100132.81
2022-09-23T09:15:21.066Z,100130.91
2022-09-23T09:18:01.288Z,100128.47
2022-09-23T09:20:39.663Z,100128.94
2022-09-23T09:23:20.208Z,100133.09
2022-09-23T09:25:51.240Z,100132.50
2022-09-23T09:28:23.429Z,100122.16
2022-09-23T09:30:57.289Z,100132.50
2022-09-23T09:33:30.547Z,100120.38
2022-09-23T09:36:09.028Z,100120.03
2022-09-23T09:38:37.614Z,100123.91
2022-09-23T09:41:14.234Z,100109.03
2022-09-23T09:43:44.267Z,100121.00
2022-09-23T09:46:34.216Z,100120.63
2022-09-23T09:49:08.514Z,100112.03
2022-09-23T09:51:37.117Z,100116.81
2022-09-23T09:54:18.640Z,100104.69
2022-09-23T09:59:23.413Z,100119.41
2022-09-23T10:02:13.947Z,100087.03
2022-09-23T10:04:42.285Z,100094.75
2022-09-23T10:07:15.546Z,100101.19
2022-09-23T10:09:51.006Z,100106.63
2022-09-23T10:12:21.420Z,100100.25
2022-09-23T10:14:51.813Z,100105.16
2022-09-23T10:17:26.353Z,100097.38
2022-09-23T10:20:00.961Z,100100.28
2022-09-23T10:22:32.974Z,100090.59
2022-09-23T10:25:05.897Z,100096.66
2022-09-23T10:27:35.919Z,100098.16
2022-09-23T10:30:07.081Z,100090.88
2022-09-23T10:32:37.906Z,100084.84
2022-09-23T10:35:15.520Z,100086.59
2022-09-23T10:37:48.292Z,100079.69
2022-09-23T10:40:48.819Z,100086.22
2022-09-23T10:43:42.985Z,100085.25
2022-09-23T10:46:37.063Z,100078.47
2022-09-23T10:49:27.789Z,100075.88
2022-09-23T10:52:10.802Z,100068.41
2022-09-23T10:54:53.843Z,100073.94
2022-09-23T10:57:40.632Z,100066.63
2022-09-23T11:00:23.563Z,100064.69
2022-09-23T11:03:32.183Z,100066.59
2022-09-23T11:06:14.014Z,100072.91
2022-09-23T11:09:00.173Z,100073.63
2022-09-23T11:11:38.765Z,100069.31
2022-09-23T11:14:18.544Z,100053.41
2022-09-23T11:17:04.105Z,100073.75
2022-09-23T11:19:51.718Z,100059.19
2022-09-23T11:22:38.741Z,100059.88
2022-09-23T11:25:23.963Z,100064.38
2022-09-23T11:28:17.462Z,100063.75
2022-09-23T11:30:51.885Z,100061.88
2022-09-23T11:33:39.284Z,100065.97
2022-09-23T11:36:10.687Z,100064.66
2022-09-23T11:38:44.746Z,100067.44
2022-09-23T11:41:20.391Z,100065.66
2022-09-23T11:43:53.971Z,100062.81
2022-09-23T11:46:32.423Z,100063.56
2022-09-23T11:49:08.875Z,100050.81
2022-09-23T11:51:43.582Z,100061.97
2022-09-23T11:54:21.167Z,100063.88
2022-09-23T11:56:52.647Z,100063.41
2022-09-23T11:59:39.678Z,100049.03
2022-09-23T12:02:21.805Z,100049.38
2022-09-23T12:05:01.283Z,100046.31
2022-09-23T12:07:39.591Z,100058.47
2022-09-23T12:10:11.867Z,100064.00
2022-09-23T12:12:48.903Z,100062.69
2022-09-23T12:15:42.736Z,100053.16
2022-09-23T12:18:27.679Z,100057.97
2022-09-23T12:21:22.401Z,100057.59
2022-09-23T12:24:28.501Z,100063.13
2022-09-23T12:27:01.916Z,100049.91
2022-09-23T12:29:32.593Z,100053.31
2022-09-23T12:32:01.257Z,100052.16
2022-09-23T12:34:31.646Z,100050.91
2022-09-23T12:37:04.144Z,100043.59
2022-09-23T12:39:34.519Z,100053.88
2022-09-23T12:42:07.679Z,100040.94
2022-09-23T12:44:41.448Z,100041.63
2022-09-23T12:47:31.950Z,100049.47
2022-09-23T12:50:01.050Z,100041.84
2022-09-23T12:52:31.538Z,100041.88
2022-09-23T12:55:34.790Z,100035.97
2022-09-23T12:58:04.094Z,100036.44
2022-09-23T13:00:34.278Z,100039.38
2022-09-23T13:03:20.299Z,100035.16
2022-09-23T13:06:09.776Z,100031.72
2022-09-23T13:08:40.702Z,100038.47
2022-09-23T13:11:20.441Z,100027.25
2022-09-23T13:13:51.527Z,100036.56
2022-09-23T13:16:24.234Z,100031.56
2022-09-23T13:18:54.586Z,100017.28
2022-09-23T13:21:56.042Z,100027.91
2022-09-23T13:24:39.738Z,100024.75
2022-09-23T13:27:17.024Z,100032.84
2022-09-23T13:29:52.120Z,100029.88
2022-09-23T13:32:21.981Z,100025.66
2022-09-23T13:34:58.197Z,100019.88
2022-09-23T13:37:32.711Z,100008.03
2022-09-23T13:40:18.917Z,100012.66
2022-09-23T13:42:50.406Z,100009.97
2022-09-23T13:45:22.626Z,100010.84
2022-09-23T13:47:52.244Z,100004.66
2022-09-23T13:50:22.771Z,100000.19
2022-09-23T13:52:54.028Z,100009.88
2022-09-23T13:55:31.174Z,99996.28
2022-09-23T13:58:04.309Z,100004.88
2022-09-23T14:00:37.027Z,99992.84
2022-09-23T14:03:18.042Z,99997.63
2022-09-23T14:05:47.251Z,99999.47
2022-09-23T14:08:15.294Z,99992.34
2022-09-23T14:10:46.894Z,99981.91
2022-09-23T14:13:25.527Z,99975.84
2022-09-23T14:15:59.474Z,99972.41
2022-09-23T14:18:36.719Z,99965.63
2022-09-23T14:21:05.387Z,99971.09
2022-09-23T14:23:33.864Z,99968.06
2022-09-23T14:26:03.403Z,99979.22
2022-09-23T14:28:31.548Z,99956.91
2022-09-23T14:31:01.024Z,99958.47
2022-09-23T14:33:33.467Z,99952.75
2022-09-23T14:36:06.625Z,99953.38
2022-09-23T14:38:52.106Z,99949.78
2022-09-23T14:41:23.902Z,99942.66
2022-09-23T14:43:59.176Z,99931.97
2022-09-23T14:46:30.459Z,99939.44
2022-09-23T14:49:07.912Z,99931.88
2022-09-23T14:51:46.290Z,99921.31
2022-09-23T14:54:42.471Z,99930.19
2022-09-23T14:57:34.676Z,99937.69
2022-09-23T15:00:14.586Z,99928.53
2022-09-23T15:02:46.343Z,99933.25
2022-09-23T15:05:17.358Z,99922.78
2022-09-23T15:07:49.359Z,99917.09
2022-09-23T15:10:23.630Z,99923.69
2022-09-23T15:12:53.602Z,99917.72
2022-09-23T15:15:27.928Z,99921.44
2022-09-23T15:18:05.109Z,99927.25
2022-09-23T15:20:33.470Z,99914.06
2022-09-23T15:23:01.977Z,99915.16
2022-09-23T15:25:36.356Z,99909.56
2022-09-23T15:28:18.321Z,99903.75
2022-09-23T15:30:46.898Z,99904.81
2022-09-23T15:33:16.441Z,99908.00
2022-09-23T15:35:47.608Z,99902.78
2022-09-23T15:38:17.513Z,99900.09
2022-09-23T15:40:46.512Z,99894.72
2022-09-23T15:43:21.104Z,99903.72
2022-09-23T15:45:53.105Z,99892.53
2022-09-23T15:48:25.165Z,99899.94
2022-09-23T15:50:54.685Z,99892.81
2022-09-23T15:53:24.987Z,99897.41
2022-09-23T15:55:53.358Z,99892.44
2022-09-23T15:58:21.615Z,99895.84
2022-09-23T16:00:55.671Z,99897.97
2022-09-23T16:03:28.619Z,99906.00
2022-09-23T16:05:58.163Z,99886.03
2022-09-23T16:08:26.263Z,99893.22
2022-09-23T16:10:54.908Z,99890.19
2022-09-23T16:13:23.303Z,99880.28
2022-09-23T16:15:51.461Z,99884.09
2022-09-23T16:18:19.704Z,99907.19
2022-09-23T16:20:51.298Z,99900.34
2022-09-23T16:23:34.478Z,99904.47
2022-09-23T16:26:07.329Z,99892.19
2022-09-23T16:28:35.571Z,99892.25
2022-09-23T16:31:05.755Z,99879.97
2022-09-23T16:33:34.225Z,99869.72
2022-09-23T16:36:03.951Z,99878.94
2022-09-23T16:38:32.815Z,99884.19
2022-09-23T16:41:01.120Z,99878.72
2022-09-23T16:43:32.727Z,99873.44
2022-09-23T16:46:01.132Z,99882.47
2022-09-23T16:48:29.117Z,99883.16
2022-09-23T16:50:57.242Z,99887.53
2022-09-23T16:53:30.517Z,99878.53
2022-09-23T16:55:59.070Z,99881.16
2022-09-23T16:58:27.024Z,99880.53
2022-09-23T17:01:16.100Z,99880.06
2022-09-23T17:03:44.141Z,99877.13
2022-09-23T17:06:13.346Z,99881.94
2022-09-23T17:08:44.786Z,99879.22
2022-09-23T17:11:16.788Z,99872.88
2022-09-23T17:13:45.440Z,99885.38
2022-09-23T17:16:23.627Z,99875.06
2022-09-23T17:18:51.897Z,99877.06
2022-09-23T17:21:20.047Z,99870.97
2022-09-23T17:23:49.657Z,99878.97
2022-09-23T17:26:17.698Z,99872.16
2022-09-23T17:28:45.659Z,99891.00
2022-09-23T17:31:41.025Z,99880.91
2022-09-23T17:34:20.302Z,99887.19
2022-09-23T17:36:48.449Z,99885.66
2022-09-23T17:39:18.438Z,99896.78
2022-09-23T17:41:46.528Z,99887.44
2022-09-23T17:44:16.130Z,99892.41
2022-09-23T17:46:44.221Z,99892.00
2022-09-23T17:49:12.222Z,99878.13
2022-09-23T17:51:40.533Z,99875.78
2022-09-23T17:54:08.873Z,99881.75
2022-09-23T17:56:38.222Z,99886.13
2022-09-23T17:59:06.344Z,99884.19
2022-09-23T18:01:35.694Z,99886.44
2022-09-23T18:04:05.661Z,99882.66
2022-09-23T18:06:36.210Z,99888.19
2022-09-23T18:09:06.559Z,99882.63
2022-09-23T18:11:39.461Z,99884.03
2022-09-23T18:14:15.403Z,99886.97
2022-09-23T18:16:45.361Z,99885.59
2022-09-23T18:19:16.062Z,99883.31
2022-09-23T18:21:48.522Z,99874.94
2022-09-23T18:24:33.190Z,99892.81
2022-09-23T18:28:02.896Z,99896.84
2022-09-23T18:31:13.791Z,99887.25
2022-09-23T18:34:41.071Z,99886.44
2022-09-23T18:37:15.667Z,99883.59
2022-09-23T18:39:45.759Z,99888.63
2022-09-23T18:42:14.430Z,99889.63
2022-09-23T18:44:42.394Z,99883.66
2022-09-23T18:47:31.375Z,99888.97
2022-09-23T18:50:17.906Z,99890.38
2022-09-23T18:52:48.242Z,99890.59
2022-09-23T18:55:16.455Z,99890.97
2022-09-23T18:57:45.068Z,99881.13
2022-09-23T19:00:13.792Z,99888.69
2022-09-23T19:02:43.030Z,99885.50
2022-09-23T19:05:11.292Z,99897.34
2022-09-23T19:07:39.412Z,99898.22
2022-09-23T19:10:10.168Z,99897.53
2022-09-23T19:12:38.192Z,99884.00
2022-09-23T19:15:06.806Z,99893.72
2022-09-23T19:17:34.803Z,99903.50
2022-09-23T19:20:03.292Z,99902.19
2022-09-23T19:22:32.880Z,99904.53
2022-09-23T19:25:00.803Z,99902.03
2022-09-23T19:27:30.130Z,99905.41
2022-09-23T19:29:58.221Z,99914.88
2022-09-23T19:32:26.737Z,99908.91
2022-09-23T19:34:54.776Z,99906.97
2022-09-23T19:37:23.190Z,99896.31
2022-09-23T19:39:51.143Z,99910.97
2022-09-23T19:42:19.113Z,99909.13
2022-09-23T19:44:49.738Z,99909.56
2022-09-23T19:47:17.756Z,99912.34
2022-09-23T19:49:46.048Z,99911.81
2022-09-23T19:52:14.087Z,99908.88
2022-09-23T19:54:45.901Z,99896.19
2022-09-23T19:57:14.328Z,99899.56
2022-09-23T19:59:42.403Z,99909.34
2022-09-23T20:02:12.414Z,99901.50
2022-09-23T20:04:40.706Z,99903.41
2022-09-23T20:07:11.359Z,99913.31
2022-09-23T20:09:39.299Z,99923.72
2022-09-23T20:12:11.795Z,99913.47
2022-09-23T20:14:42.223Z,99914.13
2022-09-23T20:17:13.605Z,99914.53
2022-09-23T20:19:41.706Z,99915.31
2022-09-23T20:22:32.982Z,99911.88
2022-09-23T20:25:02.028Z,99917.94
2022-09-23T20:27:31.215Z,99911.31
2022-09-23T20:30:00.447Z,99914.53
2022-09-23T20:32:29.820Z,99915.19
2022-09-23T20:34:57.989Z,99914.16
2022-09-23T20:37:26.051Z,99926.66
2022-09-23T20:39:54.359Z,99919.97
2022-09-23T20:42:22.420Z,99924.72
2022-09-23T20:44:50.931Z,99923.72
2022-09-23T20:47:19.839Z,99931.00
2022-09-23T20:49:49.492Z,99932.50
2022-09-23T20:52:20.296Z,99928.56
2022-09-23T20:54:50.475Z,99928.28
2022-09-23T20:57:19.941Z,99921.63
2022-09-23T20:59:48.672Z,99907.94
2022-09-23T21:02:16.928Z,99924.63
2022-09-23T21:04:45.415Z,99931.38
2022-09-23T21:07:14.722Z,99927.31
2022-09-23T21:09:42.743Z,99926.53
2022-09-23T21:12:11.469Z,99934.97
2022-09-23T21:14:39.516Z,99927.34
2022-09-23T21:17:07.898Z,99925.06
2022-09-23T21:19:38.056Z,99919.75
2022-09-23T21:22:06.015Z,99929.66
2022-09-23T21:27:23.944Z,99925.25
2022-09-23T21:29:51.828Z,99926.06
2022-09-23T21:32:19.785Z,99914.44
2022-09-23T21:34:51.148Z,99922.56
2022-09-23T21:37:19.110Z,99906.88
2022-09-23T21:40:08.921Z,99928.72
2022-09-23T21:42:36.938Z,99930.66
2022-09-23T21:45:06.087Z,99921.28
2022-09-23T21:47:36.095Z,99924.19
2022-09-23T21:50:04.484Z,99918.69
2022-09-23T21:52:32.407Z,99921.28
2022-09-23T21:55:01.842Z,99925.97
2022-09-23T21:57:31.046Z,99925.00
2022-09-23T21:59:58.994Z,99916.72
2022-09-23T22:02:27.580Z,99919.00
2022-09-23T22:04:55.961Z,99919.34
2022-09-23T22:07:24.173Z,99914.81
2022-09-23T22:09:52.182Z,99916.25
2022-09-23T22:12:21.615Z,99923.84
2022-09-23T22:14:51.021Z,99917.34
2022-09-23T22:17:19.494Z,99921.06
2022-09-23T22:19:47.575Z,99913.28
2022-09-23T22:22:17.643Z,99915.56
2022-09-23T22:24:47.284Z,99919.28
2022-09-23T22:27:17.711Z,99920.88
2022-09-23T22:30:04.590Z,99917.56
2022-09-23T22:32:51.533Z,99919.63
2022-09-23T22:35:22.524Z,99923.38
2022-09-23T22:37:50.541Z,99934.38
2022-09-23T22:40:18.734Z,99927.78
2022-09-23T22:42:48.785Z,99930.91
2022-09-23T22:45:18.220Z,99930.72
2022-09-23T22:47:46.215Z,99937.19
2022-09-23T22:50:15.371Z,99932.88
2022-09-23T22:52:44.071Z,99929.03
2022-09-23T22:55:12.849Z,99937.06
2022-09-23T22:57:40.925Z,99946.03
2022-09-23T23:00:14.631Z,99923.41
2022-09-23T23:02:44.031Z,99944.38
2022-09-23T23:05:14.560Z,99939.69
2022-09-23T23:07:42.729Z,99948.56
2022-09-23T23:10:11.894Z,99941.63
2022-09-23T23:12:44.043Z,99941.06
2022-09-23T23:15:12.364Z,99944.78
2022-09-23T23:17:43.412Z,99945.91
2022-09-23T23:20:12.972Z,99954.41
2022-09-23T23:22:41.065Z,99956.94
2022-09-23T23:25:10.471Z,99951.03
2022-09-23T23:27:38.479Z,99961.28
2022-09-23T23:30:08.395Z,99956.94
2022-09-23T23:32:36.380Z,99954.25
2022-09-23T23:35:04.678Z,99963.63
2022-09-23T23:37:33.991Z,99953.84
2022-09-23T23:40:02.168Z,99957.41
2022-09-23T23:42:31.789Z,99955.56
2022-09-23T23:44:59.883Z,99973.38
2022-09-23T23:47:27.855Z,99960.63
2022-09-23T23:49:55.841Z,99969.19
2022-09-23T23:52:23.819Z,99961.75
2022-09-23T23:54:53.140Z,99966.00
2022-09-23T23:57:21.163Z,99964.34
2022-09-23T23:59:49.038Z,99960.84
